createdAt,value
2024-02-26T00:00:14.755Z,18.77
2024-02-26T00:05:13.689Z,18.83
2024-02-26T00:10:12.656Z,19.05
2024-02-26T00:15:12.088Z,19.83
2024-02-26T00:20:12.487Z,19.08
2024-02-26T00:25:13.795Z,19.60
2024-02-26T00:30:13.458Z,17.80
2024-02-26T00:35:12.674Z,18.23
2024-02-26T00:40:11.776Z,19.58
2024-02-26T00:45:10.608Z,18.80
2024-02-26T00:50:10.725Z,20.98
2024-02-26T00:55:09.898Z,18.30
2024-02-26T01:00:12.333Z,16.42
2024-02-26T01:05:11.536Z,16.40
2024-02-26T01:10:10.588Z,20.23
2024-02-26T01:15:09.893Z,19.90
2024-02-26T01:20:10.303Z,20.48
2024-02-26T01:25:10.695Z,19.13
2024-02-26T01:30:10.075Z,20.40
2024-02-26T01:35:11.457Z,18.27
2024-02-26T01:40:11.082Z,18.75
2024-02-26T01:45:22.121Z,19.27
2024-02-26T01:50:23.282Z,15.43
2024-02-26T01:55:24.964Z,19.13
2024-02-26T02:00:24.196Z,19.77
2024-02-26T02:05:23.718Z,18.48
2024-02-26T02:10:26.929Z,18.17
2024-02-26T02:15:26.115Z,16.80
2024-02-26T02:20:34.279Z,19.55
2024-02-26T02:25:33.124Z,19.65
2024-02-26T02:30:34.309Z,17.50
2024-02-26T02:35:33.525Z,18.50
2024-02-26T02:40:32.351Z,17.00
2024-02-26T02:45:31.712Z,19.25
2024-02-26T02:50:30.599Z,17.25
2024-02-26T02:55:29.500Z,18.55
2024-02-26T03:00:28.485Z,17.00
2024-02-26T03:05:27.504Z,17.38
2024-02-26T03:10:26.365Z,17.55
2024-02-26T03:15:25.291Z,17.75
2024-02-26T03:20:24.478Z,16.80
2024-02-26T03:25:23.292Z,17.38
2024-02-26T03:30:22.216Z,16.30
2024-02-26T03:35:21.069Z,18.20
2024-02-26T03:40:20.741Z,17.65
2024-02-26T03:45:19.665Z,19.50
2024-02-26T03:50:18.610Z,19.17
2024-02-26T03:55:22.113Z,19.00
2024-02-26T04:00:23.232Z,14.50
2024-02-26T04:05:22.468Z,16.52
2024-02-26T04:10:21.593Z,13.85
2024-02-26T04:15:20.477Z,15.13
2024-02-26T04:20:19.486Z,15.98
2024-02-26T04:25:18.364Z,16.95
2024-02-26T04:30:18.411Z,16.52
2024-02-26T04:35:17.477Z,14.95
2024-02-26T04:40:16.299Z,15.82
2024-02-26T04:45:15.311Z,16.00
2024-02-26T04:50:14.294Z,16.10
2024-02-26T04:55:13.375Z,15.70
2024-02-26T05:00:13.121Z,14.55
2024-02-26T05:05:13.928Z,16.15
2024-02-26T05:10:13.102Z,17.88
2024-02-26T05:15:12.584Z,13.88
2024-02-26T05:20:11.659Z,13.55
2024-02-26T05:25:10.827Z,16.35
2024-02-26T05:30:10.076Z,13.85
2024-02-26T05:35:09.830Z,16.58
2024-02-26T05:40:09.087Z,9.80
2024-02-26T05:45:08.696Z,19.40
2024-02-26T05:50:08.027Z,13.90
2024-02-26T05:55:07.525Z,12.85
2024-02-26T06:00:07.221Z,10.88
2024-02-26T06:05:12.325Z,14.13
2024-02-26T06:10:11.721Z,11.85
2024-02-26T06:15:41.862Z,11.32
2024-02-26T06:20:42.904Z,11.77
2024-02-26T06:25:43.692Z,11.27
2024-02-26T06:30:42.805Z,10.32
2024-02-26T06:35:41.967Z,11.57
2024-02-26T06:40:41.258Z,12.35
2024-02-26T06:45:40.458Z,11.93
2024-02-26T06:50:39.245Z,11.73
2024-02-26T06:55:41.384Z,11.43
2024-02-26T07:00:40.237Z,11.30
2024-02-26T07:05:39.461Z,11.77
2024-02-26T07:10:38.531Z,10.93
2024-02-26T07:15:37.471Z,11.13
2024-02-26T07:20:36.460Z,11.48
2024-02-26T07:25:35.243Z,9.40
2024-02-26T07:30:34.082Z,10.88
2024-02-26T07:35:34.588Z,12.77
2024-02-26T07:40:33.440Z,10.95
2024-02-26T07:45:32.556Z,9.68
2024-02-26T07:50:31.667Z,12.30
2024-02-26T07:55:30.479Z,11.43
2024-02-26T08:00:29.771Z,10.52
2024-02-26T08:05:29.568Z,13.02
2024-02-26T08:10:31.316Z,8.98
2024-02-26T08:15:36.095Z,10.43
2024-02-26T08:20:35.068Z,13.38
2024-02-26T08:25:33.931Z,10.35
2024-02-26T08:30:32.861Z,11.23
2024-02-26T08:35:31.840Z,12.15
2024-02-26T08:40:30.742Z,12.57
2024-02-26T08:45:30.556Z,14.23
2024-02-26T08:50:29.766Z,13.55
2024-02-26T08:55:28.632Z,11.48
2024-02-26T09:00:27.552Z,10.63
2024-02-26T09:05:26.678Z,11.63
2024-02-26T09:10:25.554Z,11.50
2024-02-26T09:15:25.669Z,14.77
2024-02-26T09:20:25.037Z,15.63
2024-02-26T09:25:23.888Z,13.75
2024-02-26T09:30:22.988Z,10.75
2024-02-26T09:35:22.669Z,10.93
2024-02-26T09:40:21.811Z,11.10
2024-02-26T09:45:23.839Z,14.82
2024-02-26T09:50:26.507Z,11.00
2024-02-26T09:55:25.410Z,11.85
2024-02-26T10:00:26.531Z,10.68
2024-02-26T10:05:26.227Z,11.07
2024-02-26T10:10:25.842Z,12.02
2024-02-26T10:15:24.787Z,11.95
2024-02-26T10:20:25.081Z,11.68
2024-02-26T10:25:24.078Z,9.15
2024-02-26T10:30:24.384Z,12.52
2024-02-26T10:35:24.023Z,11.68
2024-02-26T10:40:23.122Z,11.35
2024-02-26T10:45:21.997Z,11.95
2024-02-26T10:50:21.071Z,15.40
2024-02-26T10:55:22.915Z,11.05
2024-02-26T11:00:22.030Z,10.70
2024-02-26T11:05:21.479Z,13.50
2024-02-26T11:10:20.842Z,11.57
2024-02-26T11:15:21.037Z,11.75
2024-02-26T11:20:20.994Z,9.68
2024-02-26T11:25:20.546Z,10.45
2024-02-26T11:30:20.400Z,10.02
2024-02-26T11:35:20.269Z,10.50
2024-02-26T11:40:19.477Z,13.43
2024-02-26T11:45:48.681Z,10.23
2024-02-26T11:50:52.429Z,11.07
2024-02-26T11:56:28.346Z,9.45
2024-02-26T12:01:42.677Z,12.55
2024-02-26T12:06:47.474Z,12.00
2024-02-26T12:11:46.524Z,9.65
2024-02-26T12:16:46.614Z,9.07
2024-02-26T12:21:45.848Z,11.68
2024-02-26T12:26:45.084Z,9.60
2024-02-26T12:31:44.637Z,13.75
2024-02-26T12:36:43.637Z,9.00
2024-02-26T12:41:45.772Z,10.75
2024-02-26T12:46:44.891Z,8.55
2024-02-26T12:51:45.616Z,9.35
2024-02-26T12:56:45.043Z,6.93
2024-02-26T13:01:44.086Z,9.88
2024-02-26T13:06:43.230Z,9.88
2024-02-26T13:11:42.235Z,14.07
2024-02-26T13:16:41.107Z,8.88
2024-02-26T13:21:40.048Z,9.68
2024-02-26T13:26:38.928Z,10.00
2024-02-26T13:31:44.793Z,10.93
2024-02-26T13:36:44.269Z,10.48
2024-02-26T13:41:45.004Z,8.88
2024-02-26T13:46:43.986Z,10.48
2024-02-26T13:51:43.416Z,10.30
2024-02-26T13:56:43.599Z,8.98
2024-02-26T14:01:43.577Z,9.07
2024-02-26T14:06:42.902Z,8.85
2024-02-26T14:11:43.684Z,10.57
2024-02-26T14:16:42.803Z,8.88
2024-02-26T14:21:41.605Z,12.73
2024-02-26T14:26:41.748Z,10.00
2024-02-26T14:31:40.773Z,8.57
2024-02-26T14:36:39.800Z,9.48
2024-02-26T14:41:38.570Z,9.18
2024-02-26T14:46:37.908Z,10.88
2024-02-26T14:51:36.940Z,10.35
2024-02-26T14:56:35.859Z,9.93
2024-02-26T15:01:34.767Z,8.95
2024-02-26T15:06:33.796Z,9.15
2024-02-26T15:11:32.910Z,9.25
2024-02-26T15:16:32.104Z,6.75
2024-02-26T15:21:31.039Z,7.55
2024-02-26T15:26:29.950Z,7.88
2024-02-26T15:31:28.870Z,8.93
2024-02-26T15:36:27.780Z,7.65
2024-02-26T15:41:26.677Z,10.32
2024-02-26T15:46:25.864Z,11.93
2024-02-26T15:51:27.901Z,10.57
2024-02-26T15:56:27.293Z,12.02
2024-02-26T16:01:28.179Z,9.68
2024-02-26T16:06:34.626Z,12.65
2024-02-26T16:11:33.827Z,9.68
2024-02-26T16:16:35.737Z,9.25
2024-02-26T16:21:34.847Z,8.38
2024-02-26T16:26:33.846Z,11.18
2024-02-26T16:31:32.902Z,9.23
2024-02-26T16:36:32.156Z,9.60
2024-02-26T16:41:31.086Z,11.23
2024-02-26T16:46:30.313Z,8.00
2024-02-26T16:51:29.304Z,10.13
2024-02-26T16:56:28.171Z,8.93
2024-02-26T17:01:26.994Z,10.73
2024-02-26T17:06:25.899Z,11.57
2024-02-26T17:11:25.308Z,10.93
2024-02-26T17:16:24.357Z,10.00
2024-02-26T17:21:24.619Z,10.50
2024-02-26T17:26:25.561Z,9.32
2024-02-26T17:31:26.202Z,11.90
2024-02-26T17:36:25.371Z,15.35
2024-02-26T17:41:24.338Z,11.82
2024-02-26T17:46:23.166Z,12.40
2024-02-26T17:51:23.351Z,13.80
2024-02-26T17:56:22.187Z,13.02
2024-02-26T18:01:21.085Z,14.07
2024-02-26T18:06:20.460Z,15.88
2024-02-26T18:11:19.737Z,13.48
2024-02-26T18:16:18.655Z,12.13
2024-02-26T18:21:19.283Z,11.15
2024-02-26T18:26:22.670Z,13.50
2024-02-26T18:31:21.903Z,13.07
2024-02-26T18:36:26.618Z,20.50
2024-02-26T18:41:25.688Z,18.42
2024-02-26T18:46:24.504Z,16.17
2024-02-26T18:51:23.430Z,17.83
2024-02-26T18:56:24.140Z,17.23
2024-02-26T19:01:23.137Z,19.65
2024-02-26T19:06:22.092Z,17.50
2024-02-26T19:11:22.020Z,16.08
2024-02-26T19:16:21.036Z,15.32
2024-02-26T19:21:21.291Z,15.07
2024-02-26T19:26:20.337Z,16.02
2024-02-26T19:31:19.247Z,15.13
2024-02-26T19:36:20.053Z,14.82
2024-02-26T19:41:19.153Z,15.32
2024-02-26T19:46:18.426Z,16.52
2024-02-26T19:51:20.381Z,14.73
2024-02-26T19:56:20.390Z,19.05
2024-02-26T20:01:19.440Z,10.35
2024-02-26T20:06:18.644Z,15.98
2024-02-26T20:11:19.193Z,15.20
2024-02-26T20:16:18.534Z,17.75
2024-02-26T20:21:17.450Z,17.77
2024-02-26T20:26:16.312Z,23.20
2024-02-26T20:31:15.202Z,21.00
2024-02-26T20:36:14.993Z,19.80
2024-02-26T20:41:16.444Z,19.67
2024-02-26T20:46:15.399Z,16.75
2024-02-26T20:51:14.429Z,21.58
2024-02-26T20:56:14.135Z,22.70
2024-02-26T21:01:13.025Z,21.17
2024-02-26T21:06:11.987Z,19.42
2024-02-26T21:11:11.113Z,20.55
2024-02-26T21:16:10.036Z,20.05
2024-02-26T21:21:09.839Z,20.95
2024-02-26T21:26:09.696Z,20.63
2024-02-26T21:31:10.257Z,18.70
2024-02-26T21:36:09.255Z,19.83
2024-02-26T21:41:08.073Z,18.48
2024-02-26T21:46:07.471Z,19.75
2024-02-26T21:51:07.208Z,24.05
2024-02-26T21:56:08.518Z,21.95
2024-02-26T22:01:07.428Z,20.33
2024-02-26T22:06:06.510Z,20.10
2024-02-26T22:11:05.788Z,24.10
2024-02-26T22:16:04.929Z,20.05
2024-02-26T22:21:05.380Z,20.50
2024-02-26T22:26:05.091Z,22.40
2024-02-26T22:31:05.434Z,24.92
2024-02-26T22:36:04.688Z,21.45
2024-02-26T22:41:06.092Z,20.15
2024-02-26T22:46:05.264Z,23.77
2024-02-26T22:51:04.234Z,22.00
2024-02-26T22:56:03.168Z,25.10
2024-02-26T23:01:02.085Z,20.10
2024-02-26T23:06:01.148Z,22.45
2024-02-26T23:11:02.020Z,20.58
2024-02-26T23:16:00.862Z,19.10
2024-02-26T23:20:59.800Z,20.92
2024-02-26T23:25:58.628Z,21.50
2024-02-26T23:30:57.802Z,21.42
2024-02-26T23:35:56.973Z,19.40
2024-02-26T23:40:56.996Z,21.23
2024-02-26T23:45:55.985Z,22.23
2024-02-26T23:50:54.882Z,22.88
2024-02-26T23:55:53.710Z,27.25
